sensor_id;sensor_type;location;lat;lon;timestamp;temperature;humidity
14995;DHT22;7593;49.006;8.372;2022-08-26T00:01:12;23.90;87.60
14995;DHT22;7593;49.006;8.372;2022-08-26T00:03:41;23.80;87.70
14995;DHT22;7593;49.006;8.372;2022-08-26T00:06:08;23.70;87.90
14995;DHT22;7593;49.006;8.372;2022-08-26T00:08:35;23.70;88.20
14995;DHT22;7593;49.006;8.372;2022-08-26T00:11:02;23.70;88.40
14995;DHT22;7593;49.006;8.372;2022-08-26T00:13:29;23.60;88.30
14995;DHT22;7593;49.006;8.372;2022-08-26T00:15:56;23.60;88.50
14995;DHT22;7593;49.006;8.372;2022-08-26T00:18:23;23.70;88.60
14995;DHT22;7593;49.006;8.372;2022-08-26T00:20:51;23.70;88.50
14995;DHT22;7593;49.006;8.372;2022-08-26T00:23:18;23.70;88.60
14995;DHT22;7593;49.006;8.372;2022-08-26T00:25:45;23.70;88.60
14995;DHT22;7593;49.006;8.372;2022-08-26T00:28:12;23.70;88.60
14995;DHT22;7593;49.006;8.372;2022-08-26T00:30:39;23.70;88.70
14995;DHT22;7593;49.006;8.372;2022-08-26T00:33:07;23.60;88.70
14995;DHT22;7593;49.006;8.372;2022-08-26T00:35:45;23.60;88.80
14995;DHT22;7593;49.006;8.372;2022-08-26T00:38:14;23.50;89.30
14995;DHT22;7593;49.006;8.372;2022-08-26T00:40:44;23.40;89.30
14995;DHT22;7593;49.006;8.372;2022-08-26T00:43:11;23.40;89.60
14995;DHT22;7593;49.006;8.372;2022-08-26T00:45:43;23.30;89.90
14995;DHT22;7593;49.006;8.372;2022-08-26T00:48:11;23.20;89.90
14995;DHT22;7593;49.006;8.372;2022-08-26T00:50:42;23.20;90.00
14995;DHT22;7593;49.006;8.372;2022-08-26T00:53:15;23.10;90.20
14995;DHT22;7593;49.006;8.372;2022-08-26T00:55:54;23.00;90.30
14995;DHT22;7593;49.006;8.372;2022-08-26T00:58:24;23.00;90.40
14995;DHT22;7593;49.006;8.372;2022-08-26T01:00:52;22.90;90.50
14995;DHT22;7593;49.006;8.372;2022-08-26T01:03:22;22.80;90.50
14995;DHT22;7593;49.006;8.372;2022-08-26T01:05:50;22.80;90.60
14995;DHT22;7593;49.006;8.372;2022-08-26T01:08:21;22.80;90.70
14995;DHT22;7593;49.006;8.372;2022-08-26T01:10:48;22.70;90.80
14995;DHT22;7593;49.006;8.372;2022-08-26T01:13:15;22.70;90.80
14995;DHT22;7593;49.006;8.372;2022-08-26T01:15:47;22.70;90.80
14995;DHT22;7593;49.006;8.372;2022-08-26T01:18:15;22.70;90.90
14995;DHT22;7593;49.006;8.372;2022-08-26T01:20:49;22.60;91.00
14995;DHT22;7593;49.006;8.372;2022-08-26T01:23:21;22.60;91.10
14995;DHT22;7593;49.006;8.372;2022-08-26T01:25:52;22.50;91.20
14995;DHT22;7593;49.006;8.372;2022-08-26T01:28:22;22.40;91.40
14995;DHT22;7593;49.006;8.372;2022-08-26T01:30:51;22.30;91.50
14995;DHT22;7593;49.006;8.372;2022-08-26T01:33:22;22.30;91.70
14995;DHT22;7593;49.006;8.372;2022-08-26T01:35:51;22.20;91.80
14995;DHT22;7593;49.006;8.372;2022-08-26T01:38:18;22.20;91.80
14995;DHT22;7593;49.006;8.372;2022-08-26T01:40:47;22.20;91.90
14995;DHT22;7593;49.006;8.372;2022-08-26T01:43:16;22.10;92.00
14995;DHT22;7593;49.006;8.372;2022-08-26T01:45:45;22.10;92.10
14995;DHT22;7593;49.006;8.372;2022-08-26T01:48:16;22.00;92.10
14995;DHT22;7593;49.006;8.372;2022-08-26T01:50:44;22.00;92.20
14995;DHT22;7593;49.006;8.372;2022-08-26T01:53:14;22.10;92.20
14995;DHT22;7593;49.006;8.372;2022-08-26T01:55:44;22.10;92.20
14995;DHT22;7593;49.006;8.372;2022-08-26T01:58:17;22.10;92.20
14995;DHT22;7593;49.006;8.372;2022-08-26T02:00:45;22.10;92.10
14995;DHT22;7593;49.006;8.372;2022-08-26T02:03:13;22.20;92.10
14995;DHT22;7593;49.006;8.372;2022-08-26T02:05:51;22.20;92.10
14995;DHT22;7593;49.006;8.372;2022-08-26T02:08:20;22.20;92.10
14995;DHT22;7593;49.006;8.372;2022-08-26T02:10:49;22.20;92.10
14995;DHT22;7593;49.006;8.372;2022-08-26T02:13:17;22.10;92.20
14995;DHT22;7593;49.006;8.372;2022-08-26T02:15:44;22.10;92.40
14995;DHT22;7593;49.006;8.372;2022-08-26T02:18:11;22.00;92.40
14995;DHT22;7593;49.006;8.372;2022-08-26T02:20:38;21.90;92.60
14995;DHT22;7593;49.006;8.372;2022-08-26T02:23:06;21.80;92.70
14995;DHT22;7593;49.006;8.372;2022-08-26T02:25:39;21.70;93.00
14995;DHT22;7593;49.006;8.372;2022-08-26T02:28:08;21.70;93.10
14995;DHT22;7593;49.006;8.372;2022-08-26T02:30:37;21.70;93.30
14995;DHT22;7593;49.006;8.372;2022-08-26T02:33:05;21.70;93.40
14995;DHT22;7593;49.006;8.372;2022-08-26T02:35:33;21.70;93.80
14995;DHT22;7593;49.006;8.372;2022-08-26T02:38:00;21.60;93.40
14995;DHT22;7593;49.006;8.372;2022-08-26T02:40:30;21.60;93.50
14995;DHT22;7593;49.006;8.372;2022-08-26T02:42:58;21.60;93.60
14995;DHT22;7593;49.006;8.372;2022-08-26T02:45:26;21.60;93.70
14995;DHT22;7593;49.006;8.372;2022-08-26T02:47:55;21.60;93.70
14995;DHT22;7593;49.006;8.372;2022-08-26T02:50:23;21.50;93.80
14995;DHT22;7593;49.006;8.372;2022-08-26T02:52:51;21.40;94.00
14995;DHT22;7593;49.006;8.372;2022-08-26T02:55:18;21.20;94.20
14995;DHT22;7593;49.006;8.372;2022-08-26T02:57:44;21.20;94.50
14995;DHT22;7593;49.006;8.372;2022-08-26T03:00:12;21.00;94.70
14995;DHT22;7593;49.006;8.372;2022-08-26T03:02:40;21.00;95.00
14995;DHT22;7593;49.006;8.372;2022-08-26T03:05:09;20.90;95.20
14995;DHT22;7593;49.006;8.372;2022-08-26T03:07:36;20.80;95.40
14995;DHT22;7593;49.006;8.372;2022-08-26T03:10:04;20.80;95.40
14995;DHT22;7593;49.006;8.372;2022-08-26T03:12:31;20.80;95.50
14995;DHT22;7593;49.006;8.372;2022-08-26T03:14:58;20.80;95.60
14995;DHT22;7593;49.006;8.372;2022-08-26T03:17:28;20.70;95.80
14995;DHT22;7593;49.006;8.372;2022-08-26T03:19:55;20.70;95.90
14995;DHT22;7593;49.006;8.372;2022-08-26T03:22:23;20.70;95.90
14995;DHT22;7593;49.006;8.372;2022-08-26T03:24:50;20.70;96.00
14995;DHT22;7593;49.006;8.372;2022-08-26T03:27:17;20.60;96.20
14995;DHT22;7593;49.006;8.372;2022-08-26T03:29:44;20.50;96.40
14995;DHT22;7593;49.006;8.372;2022-08-26T03:32:28;20.50;96.40
14995;DHT22;7593;49.006;8.372;2022-08-26T03:34:55;20.50;96.60
14995;DHT22;7593;49.006;8.372;2022-08-26T03:37:23;20.50;96.70
14995;DHT22;7593;49.006;8.372;2022-08-26T03:39:51;20.50;96.80
14995;DHT22;7593;49.006;8.372;2022-08-26T03:42:17;20.50;97.00
14995;DHT22;7593;49.006;8.372;2022-08-26T03:44:44;20.50;97.10
14995;DHT22;7593;49.006;8.372;2022-08-26T03:47:11;20.50;97.30
14995;DHT22;7593;49.006;8.372;2022-08-26T03:49:38;20.40;97.50
14995;DHT22;7593;49.006;8.372;2022-08-26T03:52:06;20.40;97.50
14995;DHT22;7593;49.006;8.372;2022-08-26T03:54:34;20.40;97.60
14995;DHT22;7593;49.006;8.372;2022-08-26T03:57:01;20.30;97.70
14995;DHT22;7593;49.006;8.372;2022-08-26T03:59:28;20.30;97.60
14995;DHT22;7593;49.006;8.372;2022-08-26T04:01:55;20.40;97.50
14995;DHT22;7593;49.006;8.372;2022-08-26T04:04:22;20.40;97.40
14995;DHT22;7593;49.006;8.372;2022-08-26T04:06:49;20.40;97.30
14995;DHT22;7593;49.006;8.372;2022-08-26T04:09:21;20.40;97.40
14995;DHT22;7593;49.006;8.372;2022-08-26T04:11:49;20.40;97.40
14995;DHT22;7593;49.006;8.372;2022-08-26T04:14:18;20.40;97.40
14995;DHT22;7593;49.006;8.372;2022-08-26T04:16:45;20.50;97.30
14995;DHT22;7593;49.006;8.372;2022-08-26T04:19:13;20.40;97.20
14995;DHT22;7593;49.006;8.372;2022-08-26T04:21:41;20.40;97.20
14995;DHT22;7593;49.006;8.372;2022-08-26T04:24:10;20.40;97.20
14995;DHT22;7593;49.006;8.372;2022-08-26T04:26:38;20.40;97.20
14995;DHT22;7593;49.006;8.372;2022-08-26T04:29:09;20.30;96.90
14995;DHT22;7593;49.006;8.372;2022-08-26T04:31:36;20.30;96.90
14995;DHT22;7593;49.006;8.372;2022-08-26T04:34:04;20.30;96.90
14995;DHT22;7593;49.006;8.372;2022-08-26T04:36:32;20.30;97.00
14995;DHT22;7593;49.006;8.372;2022-08-26T04:39:00;20.30;97.10
14995;DHT22;7593;49.006;8.372;2022-08-26T04:41:28;20.30;97.00
14995;DHT22;7593;49.006;8.372;2022-08-26T04:43:56;20.30;97.00
14995;DHT22;7593;49.006;8.372;2022-08-26T04:46:24;20.20;97.00
14995;DHT22;7593;49.006;8.372;2022-08-26T04:48:52;20.20;97.10
14995;DHT22;7593;49.006;8.372;2022-08-26T04:51:20;20.20;97.10
14995;DHT22;7593;49.006;8.372;2022-08-26T04:53:52;20.20;97.20
14995;DHT22;7593;49.006;8.372;2022-08-26T04:56:22;20.20;97.20
14995;DHT22;7593;49.006;8.372;2022-08-26T04:58:49;20.20;97.10
14995;DHT22;7593;49.006;8.372;2022-08-26T05:01:16;20.30;97.10
14995;DHT22;7593;49.006;8.372;2022-08-26T05:03:44;20.40;97.10
14995;DHT22;7593;49.006;8.372;2022-08-26T05:06:11;20.40;97.10
14995;DHT22;7593;49.006;8.372;2022-08-26T05:08:38;20.40;97.10
14995;DHT22;7593;49.006;8.372;2022-08-26T05:11:05;20.40;97.00
14995;DHT22;7593;49.006;8.372;2022-08-26T05:13:33;20.40;97.00
14995;DHT22;7593;49.006;8.372;2022-08-26T05:16:02;20.50;97.00
14995;DHT22;7593;49.006;8.372;2022-08-26T05:18:29;20.50;97.00
14995;DHT22;7593;49.006;8.372;2022-08-26T05:21:00;20.50;97.00
14995;DHT22;7593;49.006;8.372;2022-08-26T05:23:28;20.60;97.10
14995;DHT22;7593;49.006;8.372;2022-08-26T05:25:57;20.60;97.10
14995;DHT22;7593;49.006;8.372;2022-08-26T05:28:25;20.50;97.10
14995;DHT22;7593;49.006;8.372;2022-08-26T05:30:53;20.50;97.00
14995;DHT22;7593;49.006;8.372;2022-08-26T05:33:24;20.50;97.20
14995;DHT22;7593;49.006;8.372;2022-08-26T05:35:51;20.60;97.10
14995;DHT22;7593;49.006;8.372;2022-08-26T05:38:20;20.70;97.10
14995;DHT22;7593;49.006;8.372;2022-08-26T05:40:49;20.80;97.00
14995;DHT22;7593;49.006;8.372;2022-08-26T05:43:16;20.90;97.00
14995;DHT22;7593;49.006;8.372;2022-08-26T05:45:45;20.90;96.80
14995;DHT22;7593;49.006;8.372;2022-08-26T05:48:13;20.90;96.90
14995;DHT22;7593;49.006;8.372;2022-08-26T05:50:42;21.00;97.00
14995;DHT22;7593;49.006;8.372;2022-08-26T05:53:11;21.00;97.20
14995;DHT22;7593;49.006;8.372;2022-08-26T05:55:42;21.00;97.00
14995;DHT22;7593;49.006;8.372;2022-08-26T05:58:10;21.00;97.10
14995;DHT22;7593;49.006;8.372;2022-08-26T06:00:38;21.00;97.20
14995;DHT22;7593;49.006;8.372;2022-08-26T06:03:05;21.00;97.30
14995;DHT22;7593;49.006;8.372;2022-08-26T06:05:36;21.00;97.30
14995;DHT22;7593;49.006;8.372;2022-08-26T06:08:03;21.10;97.40
14995;DHT22;7593;49.006;8.372;2022-08-26T06:10:43;21.10;97.50
14995;DHT22;7593;49.006;8.372;2022-08-26T06:13:10;21.30;97.20
14995;DHT22;7593;49.006;8.372;2022-08-26T06:15:41;21.30;97.10
14995;DHT22;7593;49.006;8.372;2022-08-26T06:18:09;21.40;97.20
14995;DHT22;7593;49.006;8.372;2022-08-26T06:20:36;21.50;97.20
14995;DHT22;7593;49.006;8.372;2022-08-26T06:23:08;21.60;97.10
14995;DHT22;7593;49.006;8.372;2022-08-26T06:25:56;21.70;97.00
14995;DHT22;7593;49.006;8.372;2022-08-26T06:28:24;21.90;96.90
14995;DHT22;7593;49.006;8.372;2022-08-26T06:30:52;21.90;96.60
14995;DHT22;7593;49.006;8.372;2022-08-26T06:33:19;21.90;96.60
14995;DHT22;7593;49.006;8.372;2022-08-26T06:35:47;21.90;96.60
14995;DHT22;7593;49.006;8.372;2022-08-26T06:38:18;21.90;96.50
14995;DHT22;7593;49.006;8.372;2022-08-26T06:40:48;21.70;96.50
14995;DHT22;7593;49.006;8.372;2022-08-26T06:43:17;21.70;96.80
14995;DHT22;7593;49.006;8.372;2022-08-26T06:45:46;21.70;96.60
14995;DHT22;7593;49.006;8.372;2022-08-26T06:48:14;21.70;96.50
14995;DHT22;7593;49.006;8.372;2022-08-26T06:50:42;21.80;96.60
14995;DHT22;7593;49.006;8.372;2022-08-26T06:53:10;22.20;96.50
14995;DHT22;7593;49.006;8.372;2022-08-26T06:55:39;22.40;95.70
14995;DHT22;7593;49.006;8.372;2022-08-26T06:58:06;22.40;95.40
14995;DHT22;7593;49.006;8.372;2022-08-26T07:00:35;22.50;95.30
14995;DHT22;7593;49.006;8.372;2022-08-26T07:03:03;22.60;95.10
14995;DHT22;7593;49.006;8.372;2022-08-26T07:05:30;22.70;95.20
14995;DHT22;7593;49.006;8.372;2022-08-26T07:07:57;23.30;94.80
14995;DHT22;7593;49.006;8.372;2022-08-26T07:10:24;23.70;93.90
14995;DHT22;7593;49.006;8.372;2022-08-26T07:12:52;23.80;93.50
14995;DHT22;7593;49.006;8.372;2022-08-26T07:15:19;23.80;93.30
14995;DHT22;7593;49.006;8.372;2022-08-26T07:17:47;24.00;93.80
14995;DHT22;7593;49.006;8.372;2022-08-26T07:20:26;24.60;93.30
14995;DHT22;7593;49.006;8.372;2022-08-26T07:22:52;25.30;92.00
14995;DHT22;7593;49.006;8.372;2022-08-26T07:25:23;25.50;91.80
14995;DHT22;7593;49.006;8.372;2022-08-26T07:27:52;26.10;91.30
14995;DHT22;7593;49.006;8.372;2022-08-26T07:30:19;26.70;89.90
14995;DHT22;7593;49.006;8.372;2022-08-26T07:32:47;27.30;88.40
14995;DHT22;7593;49.006;8.372;2022-08-26T07:35:14;27.30;88.20
14995;DHT22;7593;49.006;8.372;2022-08-26T07:37:41;27.50;89.30
14995;DHT22;7593;49.006;8.372;2022-08-26T07:40:08;28.10;88.20
14995;DHT22;7593;49.006;8.372;2022-08-26T07:42:36;28.30;85.90
14995;DHT22;7593;49.006;8.372;2022-08-26T07:45:03;28.20;86.00
14995;DHT22;7593;49.006;8.372;2022-08-26T07:47:30;28.30;86.50
14995;DHT22;7593;49.006;8.372;2022-08-26T07:49:59;28.30;85.80
14995;DHT22;7593;49.006;8.372;2022-08-26T07:52:28;28.20;86.00
14995;DHT22;7593;49.006;8.372;2022-08-26T07:54:57;28.30;85.80
14995;DHT22;7593;49.006;8.372;2022-08-26T07:57:24;28.10;85.30
14995;DHT22;7593;49.006;8.372;2022-08-26T07:59:51;27.80;85.90
14995;DHT22;7593;49.006;8.372;2022-08-26T08:02:18;27.50;86.00
14995;DHT22;7593;49.006;8.372;2022-08-26T08:04:45;27.30;87.60
14995;DHT22;7593;49.006;8.372;2022-08-26T08:07:14;27.20;87.80
14995;DHT22;7593;49.006;8.372;2022-08-26T08:09:42;27.10;88.50
14995;DHT22;7593;49.006;8.372;2022-08-26T08:12:09;27.00;88.90
14995;DHT22;7593;49.006;8.372;2022-08-26T08:14:36;27.00;89.10
14995;DHT22;7593;49.006;8.372;2022-08-26T08:17:04;27.20;88.80
14995;DHT22;7593;49.006;8.372;2022-08-26T08:19:31;27.30;88.10
14995;DHT22;7593;49.006;8.372;2022-08-26T08:21:58;27.30;87.90
14995;DHT22;7593;49.006;8.372;2022-08-26T08:24:26;27.10;87.90
14995;DHT22;7593;49.006;8.372;2022-08-26T08:26:53;27.00;88.20
14995;DHT22;7593;49.006;8.372;2022-08-26T08:29:20;27.10;88.00
14995;DHT22;7593;49.006;8.372;2022-08-26T08:31:49;27.00;87.80
14995;DHT22;7593;49.006;8.372;2022-08-26T08:34:17;27.00;87.70
14995;DHT22;7593;49.006;8.372;2022-08-26T08:36:44;26.90;87.70
14995;DHT22;7593;49.006;8.372;2022-08-26T08:39:11;26.80;88.40
14995;DHT22;7593;49.006;8.372;2022-08-26T08:42:20;27.20;87.80
14995;DHT22;7593;49.006;8.372;2022-08-26T08:44:56;27.50;86.30
14995;DHT22;7593;49.006;8.372;2022-08-26T08:47:30;27.50;85.60
14995;DHT22;7593;49.006;8.372;2022-08-26T08:50:02;27.40;85.80
14995;DHT22;7593;49.006;8.372;2022-08-26T08:52:31;27.30;86.20
14995;DHT22;7593;49.006;8.372;2022-08-26T08:55:00;27.60;86.20
14995;DHT22;7593;49.006;8.372;2022-08-26T08:57:34;28.50;84.60
14995;DHT22;7593;49.006;8.372;2022-08-26T09:00:08;29.30;82.20
14995;DHT22;7593;49.006;8.372;2022-08-26T09:02:41;29.70;80.20
14995;DHT22;7593;49.006;8.372;2022-08-26T09:05:16;29.60;80.20
14995;DHT22;7593;49.006;8.372;2022-08-26T09:07:48;29.60;80.60
14995;DHT22;7593;49.006;8.372;2022-08-26T09:10:30;30.00;79.80
14995;DHT22;7593;49.006;8.372;2022-08-26T09:13:02;30.60;79.20
14995;DHT22;7593;49.006;8.372;2022-08-26T09:15:37;31.30;77.50
14995;DHT22;7593;49.006;8.372;2022-08-26T09:18:10;32.10;75.90
14995;DHT22;7593;49.006;8.372;2022-08-26T09:20:47;32.80;73.80
14995;DHT22;7593;49.006;8.372;2022-08-26T09:23:15;33.50;72.20
14995;DHT22;7593;49.006;8.372;2022-08-26T09:25:47;34.00;69.40
14995;DHT22;7593;49.006;8.372;2022-08-26T09:28:18;34.40;69.10
14995;DHT22;7593;49.006;8.372;2022-08-26T09:30:46;34.80;67.80
14995;DHT22;7593;49.006;8.372;2022-08-26T09:33:27;34.70;67.30
14995;DHT22;7593;49.006;8.372;2022-08-26T09:36:12;34.60;67.60
14995;DHT22;7593;49.006;8.372;2022-08-26T09:38:40;35.10;67.00
14995;DHT22;7593;49.006;8.372;2022-08-26T09:41:20;35.30;66.50
14995;DHT22;7593;49.006;8.372;2022-08-26T09:44:07;35.60;65.40
14995;DHT22;7593;49.006;8.372;2022-08-26T09:46:35;35.50;65.60
14995;DHT22;7593;49.006;8.372;2022-08-26T09:49:19;35.30;65.80
14995;DHT22;7593;49.006;8.372;2022-08-26T09:51:46;35.10;65.70
14995;DHT22;7593;49.006;8.372;2022-08-26T09:54:24;35.20;65.30
14995;DHT22;7593;49.006;8.372;2022-08-26T09:56:53;35.20;64.90
14995;DHT22;7593;49.006;8.372;2022-08-26T09:59:36;35.50;63.70
14995;DHT22;7593;49.006;8.372;2022-08-26T10:02:28;35.80;63.00
14995;DHT22;7593;49.006;8.372;2022-08-26T10:05:02;36.10;62.50
14995;DHT22;7593;49.006;8.372;2022-08-26T10:07:38;36.10;62.90
14995;DHT22;7593;49.006;8.372;2022-08-26T10:10:10;36.20;63.20
14995;DHT22;7593;49.006;8.372;2022-08-26T10:12:45;36.20;63.00
14995;DHT22;7593;49.006;8.372;2022-08-26T10:15:15;36.60;62.50
14995;DHT22;7593;49.006;8.372;2022-08-26T10:17:49;37.10;61.30
14995;DHT22;7593;49.006;8.372;2022-08-26T10:20:19;37.60;60.20
14995;DHT22;7593;49.006;8.372;2022-08-26T10:22:53;37.40;60.70
14995;DHT22;7593;49.006;8.372;2022-08-26T10:25:25;37.60;60.20
14995;DHT22;7593;49.006;8.372;2022-08-26T10:28:03;38.00;59.20
14995;DHT22;7593;49.006;8.372;2022-08-26T10:30:36;37.70;59.50
14995;DHT22;7593;49.006;8.372;2022-08-26T10:33:06;38.10;59.00
14995;DHT22;7593;49.006;8.372;2022-08-26T10:35:36;38.40;58.30
14995;DHT22;7593;49.006;8.372;2022-08-26T10:38:09;38.50;58.30
14995;DHT22;7593;49.006;8.372;2022-08-26T10:40:45;38.50;58.20
14995;DHT22;7593;49.006;8.372;2022-08-26T10:43:20;38.80;57.70
14995;DHT22;7593;49.006;8.372;2022-08-26T10:45:52;39.10;57.20
14995;DHT22;7593;49.006;8.372;2022-08-26T10:48:23;39.00;57.50
14995;DHT22;7593;49.006;8.372;2022-08-26T10:50:52;39.20;57.30
14995;DHT22;7593;49.006;8.372;2022-08-26T10:53:26;39.20;56.90
14995;DHT22;7593;49.006;8.372;2022-08-26T10:56:10;38.90;57.20
14995;DHT22;7593;49.006;8.372;2022-08-26T10:58:49;38.00;58.30
14995;DHT22;7593;49.006;8.372;2022-08-26T11:01:21;37.50;59.00
14995;DHT22;7593;49.006;8.372;2022-08-26T11:04:19;37.70;59.50
14995;DHT22;7593;49.006;8.372;2022-08-26T11:06:47;37.90;58.60
14995;DHT22;7593;49.006;8.372;2022-08-26T11:09:42;37.80;58.80
14995;DHT22;7593;49.006;8.372;2022-08-26T11:12:55;38.30;58.00
14995;DHT22;7593;49.006;8.372;2022-08-26T11:18:51;39.10;56.80
14995;DHT22;7593;49.006;8.372;2022-08-26T11:21:42;38.50;56.90
14995;DHT22;7593;49.006;8.372;2022-08-26T11:24:38;38.40;57.30
14995;DHT22;7593;49.006;8.372;2022-08-26T11:27:08;38.70;57.60
14995;DHT22;7593;49.006;8.372;2022-08-26T11:29:59;39.10;56.40
14995;DHT22;7593;49.006;8.372;2022-08-26T11:32:45;38.80;57.20
14995;DHT22;7593;49.006;8.372;2022-08-26T11:35:47;39.20;56.70
14995;DHT22;7593;49.006;8.372;2022-08-26T11:38:19;39.70;56.00
14995;DHT22;7593;49.006;8.372;2022-08-26T11:41:07;39.20;56.00
14995;DHT22;7593;49.006;8.372;2022-08-26T11:43:37;38.70;56.60
14995;DHT22;7593;49.006;8.372;2022-08-26T11:46:08;37.90;57.60
14995;DHT22;7593;49.006;8.372;2022-08-26T11:48:39;37.50;57.50
14995;DHT22;7593;49.006;8.372;2022-08-26T11:51:08;37.40;58.00
14995;DHT22;7593;49.006;8.372;2022-08-26T11:53:38;37.50;58.10
14995;DHT22;7593;49.006;8.372;2022-08-26T11:56:08;37.90;57.30
14995;DHT22;7593;49.006;8.372;2022-08-26T11:58:43;38.10;57.20
14995;DHT22;7593;49.006;8.372;2022-08-26T12:01:26;37.80;57.60
14995;DHT22;7593;49.006;8.372;2022-08-26T12:03:54;38.10;56.60
14995;DHT22;7593;49.006;8.372;2022-08-26T12:06:28;38.50;55.70
14995;DHT22;7593;49.006;8.372;2022-08-26T12:08:58;38.80;55.90
14995;DHT22;7593;49.006;8.372;2022-08-26T12:11:27;39.40;55.50
14995;DHT22;7593;49.006;8.372;2022-08-26T12:13:57;39.60;54.90
14995;DHT22;7593;49.006;8.372;2022-08-26T12:16:30;39.70;54.00
14995;DHT22;7593;49.006;8.372;2022-08-26T12:18:58;39.60;53.90
14995;DHT22;7593;49.006;8.372;2022-08-26T12:21:28;39.90;53.90
14995;DHT22;7593;49.006;8.372;2022-08-26T12:23:56;40.00;54.10
14995;DHT22;7593;49.006;8.372;2022-08-26T12:26:26;40.30;54.00
14995;DHT22;7593;49.006;8.372;2022-08-26T12:28:55;40.30;53.70
14995;DHT22;7593;49.006;8.372;2022-08-26T12:31:31;40.40;53.50
14995;DHT22;7593;49.006;8.372;2022-08-26T12:34:01;40.40;51.40
14995;DHT22;7593;49.006;8.372;2022-08-26T12:36:30;40.40;53.00
14995;DHT22;7593;49.006;8.372;2022-08-26T12:39:06;40.50;53.20
14995;DHT22;7593;49.006;8.372;2022-08-26T12:41:52;40.70;53.10
14995;DHT22;7593;49.006;8.372;2022-08-26T12:44:47;40.80;52.90
14995;DHT22;7593;49.006;8.372;2022-08-26T12:47:23;40.50;53.20
14995;DHT22;7593;49.006;8.372;2022-08-26T12:50:00;40.50;52.90
14995;DHT22;7593;49.006;8.372;2022-08-26T12:52:31;40.60;52.60
14995;DHT22;7593;49.006;8.372;2022-08-26T12:55:00;40.80;52.60
14995;DHT22;7593;49.006;8.372;2022-08-26T12:57:30;41.00;52.30
14995;DHT22;7593;49.006;8.372;2022-08-26T13:00:24;41.30;52.20
14995;DHT22;7593;49.006;8.372;2022-08-26T13:02:55;41.40;51.70
14995;DHT22;7593;49.006;8.372;2022-08-26T13:05:24;41.50;51.40
14995;DHT22;7593;49.006;8.372;2022-08-26T13:08:09;41.40;51.10
14995;DHT22;7593;49.006;8.372;2022-08-26T13:10:38;40.70;51.10
14995;DHT22;7593;49.006;8.372;2022-08-26T13:13:06;39.70;52.40
14995;DHT22;7593;49.006;8.372;2022-08-26T13:15:32;39.60;52.10
14995;DHT22;7593;49.006;8.372;2022-08-26T13:18:01;39.20;52.20
14995;DHT22;7593;49.006;8.372;2022-08-26T13:20:28;38.70;52.50
14995;DHT22;7593;49.006;8.372;2022-08-26T13:22:55;38.20;53.20
14995;DHT22;7593;49.006;8.372;2022-08-26T13:25:22;38.30;53.30
14995;DHT22;7593;49.006;8.372;2022-08-26T13:27:49;38.50;53.70
14995;DHT22;7593;49.006;8.372;2022-08-26T13:30:15;38.70;53.50
14995;DHT22;7593;49.006;8.372;2022-08-26T13:32:42;38.80;53.10
14995;DHT22;7593;49.006;8.372;2022-08-26T13:35:11;38.50;53.40
14995;DHT22;7593;49.006;8.372;2022-08-26T13:37:37;38.10;54.40
14995;DHT22;7593;49.006;8.372;2022-08-26T13:40:05;37.70;55.80
14995;DHT22;7593;49.006;8.372;2022-08-26T13:42:32;37.50;56.30
14995;DHT22;7593;49.006;8.372;2022-08-26T13:44:59;37.30;56.40
14995;DHT22;7593;49.006;8.372;2022-08-26T13:47:26;37.00;57.20
14995;DHT22;7593;49.006;8.372;2022-08-26T13:49:53;36.80;58.30
14995;DHT22;7593;49.006;8.372;2022-08-26T13:52:22;36.50;59.20
14995;DHT22;7593;49.006;8.372;2022-08-26T13:54:49;36.00;60.50
14995;DHT22;7593;49.006;8.372;2022-08-26T13:57:18;35.80;61.50
14995;DHT22;7593;49.006;8.372;2022-08-26T13:59:49;35.70;60.80
14995;DHT22;7593;49.006;8.372;2022-08-26T14:02:15;35.40;60.40
14995;DHT22;7593;49.006;8.372;2022-08-26T14:04:42;34.80;61.30
14995;DHT22;7593;49.006;8.372;2022-08-26T14:07:09;34.40;62.50
14995;DHT22;7593;49.006;8.372;2022-08-26T14:09:37;34.20;63.20
14995;DHT22;7593;49.006;8.372;2022-08-26T14:12:04;34.10;63.80
14995;DHT22;7593;49.006;8.372;2022-08-26T14:14:31;33.90;64.00
14995;DHT22;7593;49.006;8.372;2022-08-26T14:16:58;33.80;64.30
14995;DHT22;7593;49.006;8.372;2022-08-26T14:19:25;33.80;64.70
14995;DHT22;7593;49.006;8.372;2022-08-26T14:21:52;33.90;64.20
14995;DHT22;7593;49.006;8.372;2022-08-26T14:24:19;34.20;63.50
14995;DHT22;7593;49.006;8.372;2022-08-26T14:26:48;34.40;63.00
14995;DHT22;7593;49.006;8.372;2022-08-26T14:29:15;34.70;62.30
14995;DHT22;7593;49.006;8.372;2022-08-26T14:31:41;35.10;62.00
14995;DHT22;7593;49.006;8.372;2022-08-26T14:34:08;35.60;61.20
14995;DHT22;7593;49.006;8.372;2022-08-26T14:36:38;35.80;60.10
14995;DHT22;7593;49.006;8.372;2022-08-26T14:39:06;35.80;60.00
14995;DHT22;7593;49.006;8.372;2022-08-26T14:41:37;35.80;60.20
14995;DHT22;7593;49.006;8.372;2022-08-26T14:44:09;35.60;60.70
14995;DHT22;7593;49.006;8.372;2022-08-26T14:46:40;35.40;61.10
14995;DHT22;7593;49.006;8.372;2022-08-26T14:49:07;35.10;61.70
14995;DHT22;7593;49.006;8.372;2022-08-26T14:51:34;34.80;62.20
14995;DHT22;7593;49.006;8.372;2022-08-26T14:54:01;34.60;62.80
14995;DHT22;7593;49.006;8.372;2022-08-26T14:56:43;34.60;63.30
14995;DHT22;7593;49.006;8.372;2022-08-26T14:59:13;34.50;63.80
14995;DHT22;7593;49.006;8.372;2022-08-26T15:01:42;34.40;64.40
14995;DHT22;7593;49.006;8.372;2022-08-26T15:04:09;34.30;64.70
14995;DHT22;7593;49.006;8.372;2022-08-26T15:06:36;34.20;64.40
14995;DHT22;7593;49.006;8.372;2022-08-26T15:09:03;34.00;64.20
14995;DHT22;7593;49.006;8.372;2022-08-26T15:11:30;33.60;65.20
14995;DHT22;7593;49.006;8.372;2022-08-26T15:13:58;33.50;66.00
14995;DHT22;7593;49.006;8.372;2022-08-26T15:16:27;33.20;67.20
14995;DHT22;7593;49.006;8.372;2022-08-26T15:18:55;32.80;68.50
14995;DHT22;7593;49.006;8.372;2022-08-26T15:21:22;32.50;69.70
14995;DHT22;7593;49.006;8.372;2022-08-26T15:23:50;32.10;70.80
14995;DHT22;7593;49.006;8.372;2022-08-26T15:26:18;31.60;72.00
14995;DHT22;7593;49.006;8.372;2022-08-26T15:28:45;31.40;72.70
14995;DHT22;7593;49.006;8.372;2022-08-26T15:31:12;31.30;73.50
14995;DHT22;7593;49.006;8.372;2022-08-26T15:33:40;31.30;73.70
14995;DHT22;7593;49.006;8.372;2022-08-26T15:36:08;31.20;74.30
14995;DHT22;7593;49.006;8.372;2022-08-26T15:38:37;31.00;74.80
14995;DHT22;7593;49.006;8.372;2022-08-26T15:41:05;30.80;75.50
14995;DHT22;7593;49.006;8.372;2022-08-26T15:43:33;30.60;76.00
14995;DHT22;7593;49.006;8.372;2022-08-26T15:46:00;30.50;76.50
14995;DHT22;7593;49.006;8.372;2022-08-26T15:48:27;30.50;76.90
14995;DHT22;7593;49.006;8.372;2022-08-26T15:50:57;30.40;77.20
14995;DHT22;7593;49.006;8.372;2022-08-26T15:53:25;30.30;77.60
14995;DHT22;7593;49.006;8.372;2022-08-26T15:55:53;30.20;77.80
14995;DHT22;7593;49.006;8.372;2022-08-26T15:58:20;30.10;78.20
14995;DHT22;7593;49.006;8.372;2022-08-26T16:00:48;30.10;78.00
14995;DHT22;7593;49.006;8.372;2022-08-26T16:03:15;30.10;77.20
14995;DHT22;7593;49.006;8.372;2022-08-26T16:05:43;30.10;77.10
14995;DHT22;7593;49.006;8.372;2022-08-26T16:08:12;30.10;76.70